Etusivu
METAR-TAF:

METAR-TAF

Lentoasemat :

Mikkeli, Suomi

Mikkelin lentoasema

Leveyspiiri: 61-44N, Pituuspiiri: 027-18E, korkeus merenpinnasta: 138 m

Tämänhetkinen sää

Tämä raportti tehtiin 15 minuuttia sitten, kello 14.50 UTC
Tuuli 6 kn etelästä/kaakosta, vaihdellen idän/kaakon ja etelän välillä
Lämpötila 3°C
Kosteus 100%
Ilmanpaine 1007 hPa
Näkyvyys: 2000 m
Pilvistä 200 ft:n korkeudessa
utua

METAR: EFMI 241450Z AUTO 15006KT 110V180 2000 BR OVC002 03/03 Q1007

Aika: 17:05 (15:05 UTC)


TAF: puuttuu

Säähavainnot ja -ennusteet yli 4000 lentoasemalta (METAR- ja TAF-raportit).

Käytössä olevat sääasemat on merkitty karttaan keltaisilla ja punaisilla pisteillä.

Aseta hiiri pisteen päälle nähdäksesi sääaseman nimen.

Klikkaa sitten nähdäksesi säähavainnot ja -ennusteet.

Kartan vaihtaminen: klikkaa mustalla rastilla varustettuja vihreitä pisteitä, niin voit zoomata sisään; viivalla varustettua vihreää pistettä, niin voit zoomata ulos tai vihreitä nuolia, niin pääset viereisille kartoille.


METAR-TAF: